createdAt,value
2022-10-13T00:00:49.144Z,152.32
2022-10-13T00:03:18.172Z,142.73
2022-10-13T00:05:47.727Z,143.23
2022-10-13T00:08:16.554Z,144.18
2022-10-13T00:10:46.584Z,150.10
2022-10-13T00:13:13.938Z,148.88
2022-10-13T00:15:42.009Z,143.48
2022-10-13T00:18:09.061Z,139.95
2022-10-13T00:20:36.533Z,152.60
2022-10-13T00:23:03.133Z,144.73
2022-10-13T00:25:29.768Z,143.90
2022-10-13T00:27:56.390Z,140.65
2022-10-13T00:30:28.100Z,140.95
2022-10-13T00:32:54.700Z,151.00
2022-10-13T00:35:21.433Z,151.73
2022-10-13T00:37:48.060Z,147.70
2022-10-13T00:40:14.757Z,143.52
2022-10-13T00:42:41.926Z,141.50
2022-10-13T00:45:17.959Z,144.43
2022-10-13T00:47:48.306Z,140.07
2022-10-13T00:50:19.960Z,149.38
2022-10-13T00:52:53.034Z,147.98
2022-10-13T00:55:28.471Z,149.73
2022-10-13T00:57:56.174Z,143.18
2022-10-13T01:00:30.368Z,152.70
2022-10-13T01:02:57.412Z,141.80
2022-10-13T01:05:25.081Z,139.95
2022-10-13T01:07:56.871Z,142.75
2022-10-13T01:10:35.892Z,141.90
2022-10-13T01:13:14.479Z,148.13
2022-10-13T01:15:52.163Z,142.77
2022-10-13T01:18:40.596Z,141.52
2022-10-13T01:21:21.501Z,146.63
2022-10-13T01:24:14.647Z,147.80
2022-10-13T01:27:03.849Z,138.48
2022-10-13T01:30:06.490Z,137.38
2022-10-13T01:32:33.642Z,140.10
2022-10-13T01:35:12.022Z,138.52
2022-10-13T01:38:03.714Z,141.68
2022-10-13T01:40:38.561Z,140.52
2022-10-13T01:43:31.219Z,136.88
2022-10-13T01:46:07.512Z,145.50
2022-10-13T01:48:38.080Z,143.85
2022-10-13T01:51:09.576Z,136.63
2022-10-13T01:53:37.829Z,150.25
2022-10-13T01:56:04.729Z,141.43
2022-10-13T01:58:35.459Z,139.40
2022-10-13T02:01:17.468Z,136.70
2022-10-13T02:04:01.341Z,140.70
2022-10-13T02:06:36.653Z,139.00
2022-10-13T02:09:13.044Z,144.90
2022-10-13T02:11:47.885Z,146.18
2022-10-13T02:14:24.389Z,134.30
2022-10-13T02:16:53.788Z,149.40
2022-10-13T02:19:21.127Z,144.32
2022-10-13T02:21:48.645Z,147.55
2022-10-13T02:24:15.326Z,138.50
2022-10-13T02:26:43.665Z,139.18
2022-10-13T02:29:13.104Z,142.05
2022-10-13T02:31:40.405Z,137.65
2022-10-13T02:34:07.700Z,148.70
2022-10-13T02:36:34.761Z,139.60
2022-10-13T02:39:01.456Z,146.73
2022-10-13T02:41:28.154Z,137.07
2022-10-13T02:43:54.832Z,138.10
2022-10-13T02:46:25.106Z,144.73
2022-10-13T02:48:52.184Z,141.07
2022-10-13T02:51:18.830Z,137.63
2022-10-13T02:53:45.442Z,148.88
2022-10-13T02:56:12.497Z,140.73
2022-10-13T02:58:39.210Z,144.82
2022-10-13T03:01:10.958Z,144.18
2022-10-13T03:03:37.932Z,144.40
2022-10-13T03:06:05.479Z,139.90
2022-10-13T03:08:33.848Z,139.20
2022-10-13T03:11:00.620Z,143.52
2022-10-13T03:13:27.809Z,137.13
2022-10-13T03:16:00.377Z,135.68
2022-10-13T03:18:27.061Z,139.95
2022-10-13T03:21:02.840Z,148.63
2022-10-13T03:23:30.102Z,143.85
2022-10-13T03:25:56.783Z,140.00
2022-10-13T03:28:23.514Z,146.45
2022-10-13T03:30:50.973Z,144.13
2022-10-13T03:33:17.572Z,147.52
2022-10-13T03:35:44.380Z,139.18
2022-10-13T03:38:11.220Z,137.43
2022-10-13T03:40:38.908Z,132.63
2022-10-13T03:43:05.539Z,136.63
2022-10-13T03:45:32.181Z,139.45
2022-10-13T03:47:58.847Z,135.95
2022-10-13T03:50:26.269Z,131.48
2022-10-13T03:52:54.173Z,145.25
2022-10-13T03:55:20.858Z,144.68
2022-10-13T03:57:47.508Z,134.20
2022-10-13T04:00:15.153Z,136.88
2022-10-13T04:02:41.823Z,144.52
2022-10-13T04:05:08.849Z,139.00
2022-10-13T04:07:35.474Z,146.32
2022-10-13T04:10:11.278Z,137.32
2022-10-13T04:12:40.048Z,137.80
2022-10-13T04:15:07.364Z,140.27
2022-10-13T04:17:33.985Z,136.73
2022-10-13T04:20:00.668Z,133.38
2022-10-13T04:22:28.449Z,148.13
2022-10-13T04:24:55.078Z,134.75
2022-10-13T04:27:23.480Z,139.80
2022-10-13T04:29:50.106Z,136.95
2022-10-13T04:32:16.915Z,139.18
2022-10-13T04:34:43.818Z,138.52
2022-10-13T04:37:10.497Z,137.15
2022-10-13T04:39:37.097Z,146.10
2022-10-13T04:42:03.993Z,140.73
2022-10-13T04:44:31.145Z,138.13
2022-10-13T04:46:58.302Z,142.27
2022-10-13T04:49:25.585Z,137.02
2022-10-13T04:51:52.243Z,135.52
2022-10-13T04:54:18.938Z,141.55
2022-10-13T04:56:46.159Z,138.27
2022-10-13T04:59:13.003Z,144.43
2022-10-13T05:01:39.647Z,138.80
2022-10-13T05:04:10.982Z,144.40
2022-10-13T05:07:05.177Z,139.68
2022-10-13T05:09:28.093Z,139.60
2022-10-13T05:11:55.239Z,145.60
2022-10-13T05:14:23.020Z,145.48
2022-10-13T05:16:49.631Z,144.25
2022-10-13T05:19:16.383Z,135.80
2022-10-13T05:21:43.298Z,147.68
2022-10-13T05:24:13.579Z,137.80
2022-10-13T05:26:41.251Z,138.73
2022-10-13T05:29:08.671Z,140.00
2022-10-13T05:31:36.263Z,136.63
2022-10-13T05:34:03.182Z,145.77
2022-10-13T05:36:35.026Z,142.63
2022-10-13T05:39:05.401Z,141.00
2022-10-13T05:41:32.241Z,144.30
2022-10-13T05:44:01.950Z,132.82
2022-10-13T05:46:28.809Z,132.40
2022-10-13T05:48:55.592Z,141.73
2022-10-13T05:51:27.249Z,133.50
2022-10-13T05:54:04.072Z,137.05
2022-10-13T05:56:35.666Z,141.88
2022-10-13T05:59:06.784Z,137.57
2022-10-13T06:01:37.952Z,137.45
2022-10-13T06:04:08.713Z,144.77
2022-10-13T06:06:35.690Z,141.05
2022-10-13T06:09:02.389Z,139.07
2022-10-13T06:11:29.032Z,138.07
2022-10-13T06:13:55.727Z,146.23
2022-10-13T06:16:22.440Z,138.02
2022-10-13T06:18:49.153Z,141.85
2022-10-13T06:21:15.773Z,148.38
2022-10-13T06:23:42.383Z,137.55
2022-10-13T06:26:09.246Z,136.23
2022-10-13T06:28:36.997Z,152.23
2022-10-13T06:31:05.436Z,140.75
2022-10-13T06:33:33.544Z,148.93
2022-10-13T06:36:05.031Z,139.43
2022-10-13T06:38:32.713Z,145.95
2022-10-13T06:41:01.116Z,141.02
2022-10-13T06:43:35.744Z,151.80
2022-10-13T06:46:06.388Z,143.75
2022-10-13T06:48:33.087Z,138.80
2022-10-13T06:51:08.109Z,140.93
2022-10-13T06:53:35.323Z,137.00
2022-10-13T06:56:03.863Z,138.65
2022-10-13T06:58:30.903Z,142.77
2022-10-13T07:00:57.867Z,136.95
2022-10-13T07:03:25.334Z,143.35
2022-10-13T07:05:52.128Z,146.88
2022-10-13T07:08:19.332Z,152.30
2022-10-13T07:10:46.402Z,145.45
2022-10-13T07:13:13.034Z,153.25
2022-10-13T07:15:41.031Z,147.23
2022-10-13T07:18:08.270Z,145.23
2022-10-13T07:20:35.416Z,144.50
2022-10-13T07:23:02.704Z,147.60
2022-10-13T07:25:29.642Z,146.63
2022-10-13T07:27:58.019Z,145.68
2022-10-13T07:30:24.862Z,151.63
2022-10-13T07:32:51.897Z,151.63
2022-10-13T07:35:18.629Z,151.30
2022-10-13T07:37:45.610Z,148.77
2022-10-13T07:40:12.565Z,154.82
2022-10-13T07:42:39.201Z,149.32
2022-10-13T07:45:06.534Z,158.25
2022-10-13T07:47:33.201Z,159.13
2022-10-13T07:49:59.791Z,154.88
2022-10-13T07:52:26.695Z,155.23
2022-10-13T07:54:54.077Z,156.82
2022-10-13T07:57:20.818Z,152.48
2022-10-13T07:59:47.522Z,154.60
2022-10-13T08:02:15.631Z,152.32
2022-10-13T08:04:42.257Z,152.85
2022-10-13T08:07:09.408Z,152.45
2022-10-13T08:09:36.174Z,148.93
2022-10-13T08:12:03.096Z,154.38
2022-10-13T08:14:31.289Z,150.50
2022-10-13T08:16:58.002Z,157.48
2022-10-13T08:19:26.556Z,152.77
2022-10-13T08:21:58.849Z,152.80
2022-10-13T08:24:27.178Z,154.57
2022-10-13T08:26:54.086Z,164.07
2022-10-13T08:29:22.359Z,157.93
2022-10-13T08:34:25.757Z,161.73
2022-10-13T08:36:56.307Z,161.65
2022-10-13T08:39:24.317Z,161.80
2022-10-13T08:41:52.103Z,158.32
2022-10-13T08:47:27.623Z,157.93
2022-10-13T08:50:02.368Z,160.82
2022-10-13T08:52:44.897Z,168.38
2022-10-13T08:55:21.704Z,162.05
2022-10-13T08:57:48.590Z,165.80
2022-10-13T09:00:17.489Z,165.50
2022-10-13T09:02:50.318Z,160.13
2022-10-13T09:05:32.504Z,160.00
2022-10-13T09:08:11.393Z,159.93
2022-10-13T09:10:47.936Z,162.93
2022-10-13T09:13:18.856Z,163.13
2022-10-13T09:15:47.966Z,157.63
2022-10-13T09:18:16.637Z,161.02
2022-10-13T09:20:43.280Z,166.25
2022-10-13T09:23:23.126Z,164.35
2022-10-13T09:25:52.531Z,159.63
2022-10-13T09:28:30.991Z,168.63
2022-10-13T09:31:27.473Z,163.63
2022-10-13T09:34:03.562Z,161.80
2022-10-13T09:36:31.307Z,161.63
2022-10-13T09:39:08.198Z,158.95
2022-10-13T09:41:36.452Z,165.85
2022-10-13T09:44:14.088Z,157.95
2022-10-13T09:46:51.249Z,157.43
2022-10-13T09:49:40.348Z,163.85
2022-10-13T09:54:51.466Z,157.30
2022-10-13T09:57:21.760Z,162.50
2022-10-13T09:59:58.723Z,163.65
2022-10-13T10:02:29.245Z,163.02
2022-10-13T10:05:00.710Z,167.05
2022-10-13T10:07:30.059Z,159.60
2022-10-13T10:10:04.863Z,161.02
2022-10-13T10:12:36.535Z,161.85
2022-10-13T10:15:16.367Z,164.40
2022-10-13T10:18:00.478Z,159.02
2022-10-13T10:20:39.296Z,166.38
2022-10-13T10:23:24.342Z,168.93
2022-10-13T10:25:53.849Z,164.07
2022-10-13T10:28:32.524Z,158.75
2022-10-13T10:31:13.689Z,159.02
2022-10-13T10:34:06.739Z,165.27
2022-10-13T10:36:57.837Z,164.70
2022-10-13T10:39:40.400Z,159.20
2022-10-13T10:42:18.370Z,161.98
2022-10-13T10:44:49.140Z,163.13
2022-10-13T10:47:43.283Z,163.90
2022-10-13T10:50:15.366Z,165.50
2022-10-13T10:53:19.965Z,165.13
2022-10-13T10:56:09.261Z,161.90
2022-10-13T10:58:56.827Z,163.27
2022-10-13T11:01:44.287Z,168.77
2022-10-13T11:04:32.859Z,168.88
2022-10-13T11:06:59.659Z,164.77
2022-10-13T11:09:41.706Z,163.10
2022-10-13T11:12:21.092Z,169.48
2022-10-13T11:15:03.223Z,161.82
2022-10-13T11:17:31.734Z,166.13
2022-10-13T11:20:00.360Z,166.95
2022-10-13T11:22:28.944Z,168.00
2022-10-13T11:25:04.250Z,161.10
2022-10-13T11:27:40.245Z,161.48
2022-10-13T11:30:52.911Z,156.80
2022-10-13T11:33:36.629Z,161.00
2022-10-13T11:36:35.230Z,162.55
2022-10-13T11:39:16.561Z,165.27
2022-10-13T11:41:55.255Z,164.57
2022-10-13T11:44:41.040Z,167.77
2022-10-13T11:47:35.601Z,161.43
2022-10-13T11:50:09.997Z,164.73
2022-10-13T11:52:51.780Z,160.20
2022-10-13T11:55:34.346Z,163.38
2022-10-13T11:58:14.388Z,168.15
2022-10-13T12:00:53.717Z,162.80
2022-10-13T12:03:28.689Z,159.73
2022-10-13T12:06:00.713Z,163.25
2022-10-13T12:08:30.626Z,166.82
2022-10-13T12:10:59.997Z,161.75
2022-10-13T12:13:31.620Z,165.15
2022-10-13T12:16:06.181Z,160.85
2022-10-13T12:18:39.137Z,157.55
2022-10-13T12:21:21.277Z,162.85
2022-10-13T12:23:50.248Z,160.15
2022-10-13T12:26:23.017Z,161.90
2022-10-13T12:28:53.233Z,166.93
2022-10-13T12:31:40.424Z,167.63
2022-10-13T12:34:32.009Z,163.13
2022-10-13T12:37:05.518Z,164.05
2022-10-13T12:39:35.472Z,165.15
2022-10-13T12:42:03.972Z,168.82
2022-10-13T12:44:32.295Z,167.70
2022-10-13T12:47:02.080Z,168.32
2022-10-13T12:49:31.528Z,172.00
2022-10-13T12:52:06.065Z,167.98
2022-10-13T12:54:34.958Z,166.23
2022-10-13T12:57:15.193Z,171.85
2022-10-13T12:59:43.174Z,160.80
2022-10-13T13:02:27.842Z,168.02
2022-10-13T13:04:54.523Z,163.35
2022-10-13T13:07:36.920Z,161.55
2022-10-13T13:10:19.980Z,162.20
2022-10-13T13:12:49.136Z,163.27
2022-10-13T13:15:31.783Z,164.40
2022-10-13T13:18:27.027Z,168.43
2022-10-13T13:20:54.907Z,165.35
2022-10-13T13:23:23.396Z,167.68
2022-10-13T13:26:17.469Z,168.75
2022-10-13T13:28:50.030Z,166.63
2022-10-13T13:31:18.899Z,165.65
2022-10-13T13:33:46.542Z,169.15
2022-10-13T13:36:26.339Z,165.38
2022-10-13T13:38:54.041Z,170.50
2022-10-13T13:41:21.311Z,165.50
2022-10-13T13:43:48.706Z,164.65
2022-10-13T13:46:22.025Z,166.30
2022-10-13T13:48:49.077Z,161.82
2022-10-13T13:51:15.871Z,167.85
2022-10-13T13:53:44.166Z,168.45
2022-10-13T13:56:17.379Z,166.38
2022-10-13T13:58:44.774Z,167.52
2022-10-13T14:01:13.191Z,159.68
2022-10-13T14:03:40.558Z,164.18
2022-10-13T14:06:08.269Z,167.90
2022-10-13T14:08:42.176Z,161.07
2022-10-13T14:11:09.828Z,168.27
2022-10-13T14:13:36.496Z,167.18
2022-10-13T14:16:04.111Z,160.43
2022-10-13T14:18:31.291Z,163.32
2022-10-13T14:20:57.985Z,166.95
2022-10-13T14:23:24.689Z,166.50
2022-10-13T14:25:51.406Z,163.93
2022-10-13T14:28:23.007Z,161.90
2022-10-13T14:30:49.779Z,168.35
2022-10-13T14:33:19.457Z,166.52
2022-10-13T14:35:47.011Z,163.43
2022-10-13T14:38:16.184Z,165.10
2022-10-13T14:40:44.324Z,163.30
2022-10-13T14:43:11.108Z,163.02
2022-10-13T14:45:37.681Z,164.95
2022-10-13T14:48:05.828Z,169.10
2022-10-13T14:50:34.032Z,165.32
2022-10-13T14:53:00.812Z,161.88
2022-10-13T14:55:27.652Z,166.65
2022-10-13T14:57:54.438Z,162.70
2022-10-13T15:00:21.150Z,167.70
2022-10-13T15:02:47.809Z,163.27
2022-10-13T15:05:14.501Z,162.60
2022-10-13T15:07:41.226Z,171.13
2022-10-13T15:10:08.695Z,168.23
2022-10-13T15:12:36.332Z,165.95
2022-10-13T15:15:03.968Z,164.18
2022-10-13T15:17:31.144Z,168.95
2022-10-13T15:19:57.711Z,164.57
2022-10-13T15:22:24.583Z,164.50
2022-10-13T15:24:51.279Z,164.32
2022-10-13T15:27:17.977Z,160.50
2022-10-13T15:29:44.629Z,156.90
2022-10-13T15:32:17.931Z,168.65
2022-10-13T15:34:49.319Z,168.27
2022-10-13T15:37:15.991Z,167.20
2022-10-13T15:39:42.719Z,169.80
2022-10-13T15:42:11.375Z,161.90
2022-10-13T15:45:08.063Z,166.27
2022-10-13T15:47:25.029Z,169.65
2022-10-13T15:49:51.637Z,165.43
2022-10-13T15:52:18.714Z,167.48
2022-10-13T15:54:45.577Z,160.35
2022-10-13T15:57:12.185Z,166.40
2022-10-13T15:59:38.830Z,169.13
2022-10-13T16:02:05.477Z,164.13
2022-10-13T16:04:37.085Z,161.35
2022-10-13T16:07:04.218Z,164.02
2022-10-13T16:09:31.275Z,160.27
2022-10-13T16:11:57.887Z,166.98
2022-10-13T16:14:24.588Z,162.52
2022-10-13T16:16:51.232Z,163.75
2022-10-13T16:19:17.825Z,166.77
2022-10-13T16:21:46.752Z,169.20
2022-10-13T16:24:14.678Z,168.80
2022-10-13T16:26:41.267Z,166.73
2022-10-13T16:29:07.874Z,169.55
2022-10-13T16:31:35.364Z,170.00
2022-10-13T16:34:02.027Z,171.38
2022-10-13T16:36:28.676Z,164.15
2022-10-13T16:38:55.558Z,168.15
2022-10-13T16:41:23.710Z,166.85
2022-10-13T16:43:50.492Z,165.52
2022-10-13T16:46:19.609Z,165.63
2022-10-13T16:48:47.098Z,169.57
2022-10-13T16:51:16.441Z,162.82
2022-10-13T16:53:43.317Z,164.38
2022-10-13T16:56:10.217Z,165.88
2022-10-13T16:58:36.806Z,165.52
2022-10-13T17:01:09.161Z,169.65
2022-10-13T17:03:37.253Z,165.02
2022-10-13T17:06:05.022Z,167.88
2022-10-13T17:08:32.032Z,171.60
2022-10-13T17:11:00.885Z,164.73
2022-10-13T17:13:27.677Z,165.95
2022-10-13T17:15:56.551Z,168.00
2022-10-13T17:18:26.028Z,161.95
2022-10-13T17:20:57.057Z,158.73
2022-10-13T17:23:24.463Z,161.50
2022-10-13T17:25:52.402Z,164.68
2022-10-13T17:28:19.872Z,160.23
2022-10-13T17:31:00.208Z,163.68
2022-10-13T17:33:27.831Z,164.70
2022-10-13T17:36:00.265Z,162.63
2022-10-13T17:38:26.963Z,167.82
2022-10-13T17:40:57.365Z,170.30
2022-10-13T17:43:26.221Z,163.60
2022-10-13T17:45:53.433Z,163.10
2022-10-13T17:48:23.063Z,157.43
2022-10-13T17:50:49.940Z,158.70
2022-10-13T17:53:18.591Z,162.98
2022-10-13T17:55:45.240Z,160.48
2022-10-13T17:58:13.882Z,174.73
2022-10-13T18:01:07.932Z,174.30
2022-10-13T18:03:27.092Z,163.15
2022-10-13T18:05:53.708Z,162.55
2022-10-13T18:08:21.256Z,161.20
2022-10-13T18:11:07.015Z,160.68
2022-10-13T18:13:35.445Z,158.57
2022-10-13T18:16:07.607Z,166.55
2022-10-13T18:18:34.863Z,160.48
2022-10-13T18:21:04.625Z,158.85
2022-10-13T18:23:37.061Z,163.88
2022-10-13T18:26:09.748Z,166.52
2022-10-13T18:28:40.017Z,161.63
2022-10-13T18:31:12.342Z,159.98
2022-10-13T18:33:40.030Z,154.13
2022-10-13T18:36:25.488Z,159.10
2022-10-13T18:39:00.217Z,159.90
2022-10-13T18:41:26.929Z,155.90
2022-10-13T18:43:54.493Z,155.23
2022-10-13T18:46:22.995Z,164.68
2022-10-13T18:48:50.391Z,156.57
2022-10-13T18:51:18.890Z,159.73
2022-10-13T18:53:48.220Z,162.52
2022-10-13T18:56:19.892Z,157.45
2022-10-13T18:58:47.044Z,154.77
2022-10-13T19:01:16.921Z,153.70
2022-10-13T19:03:43.691Z,155.13
2022-10-13T19:06:12.357Z,152.55
2022-10-13T19:08:41.782Z,152.80
2022-10-13T19:11:13.562Z,162.63
2022-10-13T19:13:40.795Z,155.00
2022-10-13T19:16:09.106Z,156.90
2022-10-13T19:18:36.099Z,153.02
2022-10-13T19:21:02.908Z,154.63
2022-10-13T19:23:29.711Z,161.48
2022-10-13T19:25:56.677Z,156.63
2022-10-13T19:28:23.684Z,159.88
2022-10-13T19:30:54.519Z,155.38
2022-10-13T19:33:21.158Z,164.32
2022-10-13T19:35:54.015Z,153.18
2022-10-13T19:38:20.646Z,168.88
2022-10-13T19:40:49.664Z,164.13
2022-10-13T19:43:17.313Z,172.50
2022-10-13T19:45:57.428Z,167.57
2022-10-13T19:48:26.837Z,170.80
2022-10-13T19:50:53.625Z,163.20
2022-10-13T19:53:20.292Z,166.05
2022-10-13T19:55:48.186Z,156.98
2022-10-13T19:58:16.302Z,160.65
2022-10-13T20:00:44.973Z,159.90
2022-10-13T20:03:13.447Z,155.63
2022-10-13T20:05:43.458Z,164.98
2022-10-13T20:08:11.723Z,159.75
2022-10-13T20:10:43.214Z,161.98
2022-10-13T20:13:10.988Z,163.10
2022-10-13T20:15:42.821Z,153.40
2022-10-13T20:18:12.957Z,160.80
2022-10-13T20:20:41.397Z,156.75
2022-10-13T20:23:09.172Z,154.65
2022-10-13T20:25:38.796Z,153.00
2022-10-13T20:28:06.392Z,153.23
2022-10-13T20:30:33.685Z,153.93
2022-10-13T20:33:00.533Z,151.73
2022-10-13T20:35:27.410Z,160.07
2022-10-13T20:37:54.128Z,148.57
2022-10-13T20:40:20.906Z,157.82
2022-10-13T20:42:51.995Z,158.05
2022-10-13T20:45:20.435Z,154.48
2022-10-13T20:47:48.672Z,150.82
2022-10-13T20:50:15.772Z,154.73
2022-10-13T20:52:42.644Z,156.20
2022-10-13T20:55:10.043Z,159.18
2022-10-13T20:57:37.075Z,148.10
2022-10-13T21:00:05.067Z,158.93
2022-10-13T21:02:31.984Z,154.93
2022-10-13T21:04:58.640Z,152.27
2022-10-13T21:07:25.422Z,149.15
2022-10-13T21:09:53.925Z,157.80
2022-10-13T21:12:21.492Z,157.98
2022-10-13T21:14:48.233Z,159.13
2022-10-13T21:17:14.878Z,153.93
2022-10-13T21:19:41.458Z,150.57
2022-10-13T21:22:08.089Z,155.52
2022-10-13T21:24:34.916Z,149.43
2022-10-13T21:27:01.520Z,150.80
2022-10-13T21:29:28.293Z,152.80
2022-10-13T21:31:54.953Z,160.13
2022-10-13T21:34:21.597Z,158.93
2022-10-13T21:36:48.384Z,150.82
2022-10-13T21:39:15.310Z,156.00
2022-10-13T21:41:41.965Z,158.55
2022-10-13T21:44:12.807Z,161.55
2022-10-13T21:46:39.413Z,161.52
2022-10-13T21:49:06.590Z,154.10
2022-10-13T21:51:36.650Z,152.55
2022-10-13T21:54:10.671Z,148.20
2022-10-13T21:56:39.436Z,148.15
2022-10-13T21:59:06.858Z,157.35
2022-10-13T22:01:34.475Z,150.48
2022-10-13T22:04:02.829Z,148.27
2022-10-13T22:06:32.078Z,153.80
2022-10-13T22:09:02.131Z,154.30
2022-10-13T22:11:30.537Z,150.30
2022-10-13T22:13:57.989Z,149.70
2022-10-13T22:16:27.353Z,150.63
2022-10-13T22:18:56.082Z,148.98
2022-10-13T22:21:30.465Z,147.75
2022-10-13T22:24:02.244Z,156.43
2022-10-13T22:26:30.331Z,149.70
2022-10-13T22:28:58.216Z,145.23
2022-10-13T22:31:25.336Z,155.00
2022-10-13T22:33:53.764Z,157.50
2022-10-13T22:36:23.976Z,157.15
2022-10-13T22:38:52.234Z,155.68
2022-10-13T22:41:19.828Z,150.63
2022-10-13T22:43:51.702Z,139.68
2022-10-13T22:46:20.041Z,147.20
2022-10-13T22:48:47.088Z,148.50
2022-10-13T22:51:20.094Z,146.48
2022-10-13T22:53:47.208Z,152.32
2022-10-13T22:56:27.005Z,151.20
2022-10-13T22:58:59.638Z,151.02
2022-10-13T23:01:27.008Z,158.65
2022-10-13T23:03:56.720Z,152.85
2022-10-13T23:06:26.630Z,161.35
2022-10-13T23:08:53.601Z,150.93
2022-10-13T23:11:21.482Z,152.48
2022-10-13T23:13:48.402Z,150.52
2022-10-13T23:16:20.727Z,145.65
2022-10-13T23:18:47.854Z,153.00
2022-10-13T23:21:26.879Z,149.43
2022-10-13T23:23:59.408Z,147.50
2022-10-13T23:26:26.859Z,147.35
2022-10-13T23:28:55.743Z,145.65
2022-10-13T23:31:23.028Z,153.85
2022-10-13T23:33:49.743Z,144.55
2022-10-13T23:36:19.302Z,145.82
2022-10-13T23:38:54.565Z,148.80
2022-10-13T23:41:21.265Z,149.10
2022-10-13T23:43:48.081Z,145.10
2022-10-13T23:46:14.729Z,144.95
2022-10-13T23:48:41.608Z,149.10
2022-10-13T23:51:09.997Z,147.48
2022-10-13T23:53:38.025Z,156.65
2022-10-13T23:56:06.284Z,147.55
2022-10-13T23:58:35.732Z,146.05
